• Join FlightAware (Why Join?)
  • Login
  • US Flag 
10:33AM EDT


 

Airport Tracker/Info


-or-


 

Live Flight TrackerFlight Track Log ✈ DAL2352 ✈ 30-Jun-2013 ✈ KALB - KATL

Flight Track Log - Related Links

Times and Time Zones

All times are in EDT time to prevent confusion due to time zone crossing. See the DAL2352 flight status page for this flight to view local times or setup timezone preferences in your user account.

Time Position Orientation Groundspeed Altitude Reporting Facility
EDT Latitude Longitude Course Direction KTS MPH feet Rate Location/Type
06:30AM 42.7236 -73.8081 180° South 162 186 1,100  Level Boston Center
06:31AM 42.6669 -73.8378 201° Southwest 228 262 3,600 2,340 Climbing Boston Center
06:32AM 42.6994 -73.9092 302° West 210 242 6,400 2,400 Climbing Boston Center
06:33AM 42.5242 -74.1165 200° South  Level Estimated
06:33AM 42.7169 -73.9886 287° West 210 242 8,700  Level Boston Center
06:34AM 42.4490 -74.2208 198° South  Level Estimated
06:34AM 42.7283 -74.0708 281° West 215 247 10,700  Level Boston Center
06:35AM 42.3737 -74.3249 200° South  Level Estimated
06:35AM 42.7397 -74.1503 281° West 220 253 12,600  Level Boston Center
06:36AM 42.2984 -74.4288 180° South  Level Estimated
06:36AM 42.7428 -74.2239 273° West 225 259 14,300  Level Boston Center
06:37AM 42.6736 -74.2531 197° South 193 222 15,200 600 Climbing Boston Center
06:38AM 42.5928 -74.2169 162° South 257 296 15,600 840 Climbing Boston Center
06:39AM 42.4792 -74.1572 159° South 354 407 16,900 1,560 Climbing Boston Center
06:40AM 42.3819 -74.1069 159° South 408 470 18,800 1,920 Climbing Boston Center
06:41AM 42.2619 -74.0503 161° South 418 481 20,800 1,800 Climbing Boston Center
06:42AM 42.1453 -74.0417 177° South 418 481 22,400 1,320 Climbing Boston Center
06:43AM 42.0347 -74.0500 183° South 423 487 23,500 1,500 Climbing Boston Center
06:44AM 41.9158 -74.0556 182° South 433 498 25,400 1,740 Climbing Boston Center
06:46AM 41.7128 -74.1556 200° South 395 455 28,700 1,560 Climbing New York Center
06:47AM 41.6169 -74.2283 210° Southwest 390 449 30,000 600 Climbing New York Center
06:48AM 41.5317 -74.2989 212° Southwest 384 442 30,000  Level New York Center
06:49AM 41.4358 -74.3711 209° Southwest 384 442 30,000  Level New York Center
06:50AM 41.3419 -74.4436 210° Southwest 391 450 30,000  Level New York Center
06:51AM 41.2547 -74.5050 208° Southwest 396 456 30,000  Level New York Center
06:52AM 41.1606 -74.5769 210° Southwest 396 456 30,000  Level New York Center
06:53AM 41.0647 -74.6458 208° Southwest 396 456 30,000  Level New York Center
06:54AM 40.9706 -74.7203 211° Southwest 396 456 30,000  Level New York Center
06:55AM 40.8767 -74.7861 208° Southwest 396 456 30,000  Level New York Center
06:56AM 40.7803 -74.8597 210° Southwest 401 461 30,000  Level New York Center
06:57AM 40.6861 -74.9308 210° Southwest 396 456 30,000  Level New York Center
06:58AM 40.5922 -74.9989 209° Southwest 391 450 30,000  Level New York Center
06:59AM 40.5136 -75.0922 222° Southwest 391 450 30,000  Level New York Center
07:00AM 40.4472 -75.2028 232° Southwest 384 442 30,000  Level New York Center
07:01AM 40.3714 -75.3286 232° Southwest 395 455 30,000  Level New York Center
07:02AM 40.3047 -75.4386 232° Southwest 401 461 30,000  Level New York Center
07:03AM 40.2375 -75.5508 232° Southwest 401 461 30,000 -60 Level New York Center
07:04AM 40.1661 -75.6656 231° Southwest 406 467 29,900  Descending New York Center
07:05AM 40.0992 -75.7722 231° Southwest 406 467 30,000  Climbing New York Center
07:06AM 40.0300 -75.8811 230° Southwest 401 461 30,000  Level New York Center
07:07AM 39.9603 -75.9953 231° Southwest 406 467 30,000  Level New York Center
07:09AM 39.8203 -76.2156 230° Southwest 399 459 30,000  Level Washington Center
07:10AM 39.7508 -76.3283 231° Southwest 399 459 30,000  Level Washington Center
07:12AM 39.6814 -76.4381 231° Southwest 404 465 30,000  Level Washington Center
07:12AM 39.5994 -76.5583 229° Southwest 404 465 30,000  Level Washington Center
07:13AM 39.5317 -76.6650 231° Southwest 399 459 30,000  Level Washington Center
07:14AM 39.4619 -76.7689 229° Southwest 399 459 30,000  Level Washington Center
07:16AM 39.3942 -76.8806 232° Southwest 399 459 30,000  Level Washington Center
07:16AM 39.3264 -76.9894 231° Southwest 399 459 30,000  Level Washington Center
07:17AM 39.2564 -77.0953 230° Southwest 399 459 30,000  Level Washington Center
07:18AM 39.1839 -77.2064 230° Southwest 399 459 30,000 480 Level Washington Center
07:19AM 39.1158 -77.3092 230° Southwest 399 459 31,000 780 Climbing Washington Center
07:20AM 39.0475 -77.4117 229° Southwest 394 453 31,600 420 Climbing Washington Center
07:21AM 38.9794 -77.5114 229° Southwest 388 447 31,900 180 Climbing Washington Center
07:22AM 38.9131 -77.6111 229° Southwest 383 441 32,000  Climbing Washington Center
07:24AM 38.8511 -77.7000 228° Southwest 378 435 32,000 -60 Level Washington Center
07:24AM 38.7783 -77.8097 230° Southwest 391 450 31,900 -60 Descending Washington Center
07:25AM 38.7097 -77.9142 230° Southwest 396 456 31,900  Level Washington Center
07:26AM 38.6431 -78.0158 230° Southwest 396 456 32,000  Climbing Washington Center
07:27AM 38.5742 -78.1197 230° Southwest 396 456 32,000  Level Washington Center
07:29AM 38.5053 -78.2208 229° Southwest 396 456 32,000  Level Washington Center
07:29AM 38.4361 -78.3244 230° Southwest 396 456 32,000  Level Washington Center
07:30AM 38.3669 -78.4306 230° Southwest 396 456 32,000  Level Washington Center
07:31AM 38.2978 -78.5336 229° Southwest 396 456 32,000  Level Washington Center
07:32AM 38.2242 -78.6472 231° Southwest 396 456 32,000  Level Washington Center
07:34AM 38.1547 -78.7447 228° Southwest 384 442 32,000  Level Washington Center
07:35AM 38.0853 -78.8472 229° Southwest 384 442 32,000  Level Washington Center
07:36AM 38.0136 -78.9497 228° Southwest 384 442 32,000  Level Washington Center
07:36AM 37.9528 -79.0392 229° Southwest 384 442 32,000  Level Washington Center
07:37AM 37.8808 -79.1411 228° Southwest 384 442 32,000  Level Washington Center
07:38AM 37.8069 -79.2400 227° Southwest 389 448 32,000  Level Washington Center
07:40AM 37.7286 -79.3517 228° Southwest 389 448 32,000  Level Washington Center
07:40AM 37.6522 -79.4528 226° Southwest 398 458 32,000  Level Washington Center
07:41AM 37.5867 -79.5439 228° Southwest 398 458 32,000  Level Washington Center
07:43AM 37.5058 -79.6550 227° Southwest 398 458 32,000  Level Washington Center
07:44AM 37.4467 -79.7381 228° Southwest 398 458 32,000  Level Washington Center
07:44AM 37.3567 -79.8614 227° Southwest 408 470 32,000  Level Washington Center
07:45AM 37.2844 -79.9617 228° Southwest 398 458 32,000  Level Washington Center
07:48AM 37.1133 -80.1869 226° Southwest 391 450 32,000  Level Atlanta Center
07:49AM 37.0375 -80.2894 227° Southwest 391 450 32,000  Level Atlanta Center
07:50AM 36.9653 -80.3864 227° Southwest 391 450 32,000  Level Atlanta Center
07:51AM 36.8911 -80.4883 228° Southwest 385 443 32,000  Level Atlanta Center
07:52AM 36.8108 -80.5931 226° Southwest 385 443 32,000  Level Atlanta Center
07:53AM 36.7425 -80.6867 228° Southwest 380 437 32,000  Level Atlanta Center
07:54AM 36.6700 -80.7828 227° Southwest 374 430 32,000  Level Atlanta Center
07:55AM 36.5953 -80.8764 225° Southwest 379 436 32,000  Level Atlanta Center
07:56AM 36.5228 -80.9775 228° Southwest 384 442 32,000  Level Atlanta Center
07:57AM 36.4478 -81.0733 226° Southwest 384 442 32,000  Level Atlanta Center
07:58AM 36.3711 -81.1742 227° Southwest 390 449 32,000  Level Atlanta Center
07:59AM 36.2942 -81.2747 227° Southwest 396 456 32,000  Level Atlanta Center
08:00AM 36.2192 -81.3803 229° Southwest 408 470 32,000  Level Atlanta Center
08:01AM 36.1481 -81.4675 225° Southwest 408 470 32,000  Level Atlanta Center
08:02AM 36.0750 -81.5647 227° Southwest 398 458 32,000  Level Atlanta Center
08:03AM 35.9978 -81.6619 226° Southwest 396 456 32,000  Level Atlanta Center
08:04AM 35.9225 -81.7617 227° Southwest 402 463 32,000  Level Atlanta Center
08:05AM 35.8492 -81.8586 227° Southwest 402 463 32,000  Level Atlanta Center
08:06AM 35.7694 -81.9581 225° Southwest 402 463 32,000  Level Atlanta Center
08:07AM 35.6958 -82.0519 226° Southwest 402 463 32,000  Level Atlanta Center
08:08AM 35.6181 -82.1508 226° Southwest 402 463 32,000  Level Atlanta Center
08:09AM 35.5425 -82.2494 227° Southwest 402 463 32,000  Level Atlanta Center
08:10AM 35.4647 -82.3483 226° Southwest 407 468 32,000  Level Atlanta Center
08:11AM 35.3783 -82.4544 225° Southwest 407 468 32,000  Level Atlanta Center
08:12AM 35.3003 -82.5500 225° Southwest 401 461 32,000  Level Atlanta Center
08:13AM 35.2325 -82.6325 225° Southwest 401 461 32,000 -480 Level Atlanta Center
08:14AM 35.1542 -82.7306 226° Southwest 401 461 31,100 -1,020 Descending Atlanta Center
08:15AM 35.0758 -82.8281 226° Southwest 389 448 30,000 -1,080 Descending Atlanta Center
08:16AM 35.0017 -82.9231 226° Southwest 384 442 29,000 -900 Descending Atlanta Center
08:17AM 34.9439 -82.9947 225° Southwest 379 436 28,200 -1,020 Descending Atlanta Center
08:18AM 34.8489 -83.1047 224° Southwest 384 442 27,000 -1,140 Descending Atlanta Center
08:19AM 34.7806 -83.1942 227° Southwest 377 434 26,000 -1,020 Descending Atlanta Center
08:20AM 34.7061 -83.2858 225° Southwest 372 428 25,000 -1,020 Descending Atlanta Center
08:21AM 34.6314 -83.3547 217° Southwest 365 420 24,000 -660 Descending Atlanta Center
08:22AM 34.5525 -83.4258 217° Southwest 354 407 23,700 -1,560 Descending Atlanta Center
08:23AM 34.4756 -83.4994 218° Southwest 354 407 20,900 -3,000 Descending Atlanta Center
08:24AM 34.3986 -83.5656 215° Southwest 368 423 17,700 -2,700 Descending Atlanta Center
08:25AM 34.3175 -83.6414 218° Southwest 374 430 15,500 -2,280 Descending Atlanta Center
08:26AM 34.2364 -83.7147 217° Southwest 374 430 13,200 -1,800 Descending Atlanta Center
08:27AM 34.1614 -83.7803 216° Southwest 350 403 12,000 -600 Descending Atlanta Center
08:28AM 34.0967 -83.8356 215° Southwest 306 352 12,000 -240 Level Atlanta Center
08:29AM 34.0342 -83.9008 221° Southwest 282 325 11,600 -900 Descending Atlanta Center
08:30AM 33.9778 -83.9611 222° Southwest 274 315 10,200 -1,260 Descending Atlanta Center
08:31AM 33.9047 -83.9786 191° South 262 302 9,100 -660 Descending Atlanta Center
08:32AM 33.8233 -83.9889 186° South 280 322 8,900 -900 Descending Atlanta Center
08:33AM 33.7461 -83.9964 185° South 285 328 7,400 -960 Descending Atlanta Center
08:34AM 33.6711 -84.0064 186° South 279 321 7,000 -420 Descending Atlanta Center
08:35AM 33.6356 -84.0561 229° Southwest 216 249 6,600 -780 Descending Atlanta Center
08:36AM 33.6333 -84.1333 268° West 193 222 5,400 -1,020 Descending Atlanta TRACON
08:37AM 33.6333 -84.2000 270° West 195 224 4,400 -1,020 Descending Atlanta TRACON